Time;durP1;ratioP1;P1;durP2;ratioP2;P2;SDS_P1;SDS_P2;PMS_P1;PMS_P2;Temp;Humidity;BMP_temperature;BMP_pressure;BME280_temperature;BME280_humidity;BME280_pressure;Samples;Min_cycle;Max_cycle;Signal;HPM_P1;HPM_P2
2021/12/13 00:00:31;;;;;;;58.80;35.67;;;9.70;99.90;;;;;;5008871;28;20208;-71
2021/12/13 00:03:08;;;;;;;55.60;34.43;;;9.70;99.90;;;;;;5004214;28;20192;-71
2021/12/13 00:05:40;;;;;;;58.27;35.50;;;9.70;99.90;;;;;;5006081;28;20196;-71
2021/12/13 00:08:11;;;;;;;54.37;34.67;;;9.70;99.90;;;;;;5013359;28;20266;-71
2021/12/13 00:10:42;;;;;;;60.40;34.47;;;9.70;99.90;;;;;;5025359;28;20220;-71
2021/12/13 00:13:14;;;;;;;52.67;32.67;;;9.70;99.90;;;;;;5030010;28;20212;-71
2021/12/13 00:15:49;;;;;;;54.57;33.47;;;9.70;99.90;;;;;;5011804;28;20215;-71
2021/12/13 00:18:24;;;;;;;52.73;33.27;;;9.70;99.90;;;;;;5028774;28;20226;-71
2021/12/13 00:20:59;;;;;;;52.27;31.33;;;9.70;99.90;;;;;;5026207;28;20577;-71
2021/12/13 00:23:30;;;;;;;58.60;34.40;;;9.70;99.90;;;;;;5008981;28;20199;-71
2021/12/13 00:26:00;;;;;;;52.73;32.17;;;9.70;99.90;;;;;;5027323;28;20203;-71
2021/12/13 00:28:34;;;;;;;51.70;33.63;;;9.70;99.90;;;;;;5027290;28;20685;-71
2021/12/13 00:31:15;;;;;;;53.73;33.17;;;9.70;99.90;;;;;;5021624;28;20708;-71
2021/12/13 00:33:55;;;;;;;47.23;30.30;;;9.70;99.90;;;;;;5028370;28;20196;-71
2021/12/13 00:36:29;;;;;;;47.67;31.60;;;9.70;99.90;;;;;;5011712;28;20192;-74
2021/12/13 00:39:04;;;;;;;46.63;30.20;;;9.70;99.90;;;;;;5005564;28;20715;-71
2021/12/13 00:41:32;;;;;;;42.63;29.33;;;9.70;99.90;;;;;;5022592;28;20214;-71
2021/12/13 00:44:04;;;;;;;44.30;29.17;;;9.70;99.90;;;;;;5012324;28;20206;-71
2021/12/13 00:46:34;;;;;;;39.77;26.97;;;9.70;99.90;;;;;;5018106;28;20196;-71
2021/12/13 00:49:06;;;;;;;43.07;27.57;;;9.70;99.90;;;;;;5026677;28;20228;-71
2021/12/13 00:51:36;;;;;;;43.30;28.83;;;9.70;99.90;;;;;;5026565;28;20204;-71
2021/12/13 00:54:13;;;;;;;40.60;26.67;;;9.70;99.90;;;;;;5002472;28;20196;-71
2021/12/13 00:57:08;;;;;;;40.13;27.17;;;9.70;99.90;;;;;;5012974;28;20583;-70
2021/12/13 00:59:38;;;;;;;38.83;26.53;;;9.70;99.90;;;;;;5002760;28;20562;-71
2021/12/13 01:02:10;;;;;;;39.33;27.27;;;9.70;99.90;;;;;;5010564;28;20204;-71
2021/12/13 01:04:56;;;;;;;41.00;28.07;;;9.70;99.90;;;;;;5005822;28;20211;-71
2021/12/13 01:08:01;;;;;;;41.80;27.27;;;9.70;99.90;;;;;;5009904;28;20223;-71
2021/12/13 01:11:08;;;;;;;38.93;27.43;;;9.70;99.90;;;;;;5011082;28;20242;-70
2021/12/13 01:13:46;;;;;;;42.33;27.93;;;9.70;99.90;;;;;;5009051;28;20199;-71
2021/12/13 01:16:32;;;;;;;41.80;28.47;;;9.70;99.90;;;;;;5021577;28;20568;-72
2021/12/13 01:19:26;;;;;;;43.57;31.10;;;9.70;99.90;;;;;;5006056;28;20216;-72
2021/12/13 01:22:13;;;;;;;44.50;30.00;;;9.70;99.90;;;;;;5005307;28;20199;-71
2021/12/13 01:25:14;;;;;;;46.27;30.47;;;9.70;99.90;;;;;;5009398;28;20203;-71
2021/12/13 01:27:43;;;;;;;44.77;30.57;;;9.70;99.90;;;;;;5009725;28;20227;-71
2021/12/13 01:30:13;;;;;;;44.40;30.63;;;9.70;99.90;;;;;;5026974;28;20208;-71
2021/12/13 01:33:07;;;;;;;45.37;30.83;;;9.70;99.90;;;;;;5012317;28;20211;-71
2021/12/13 01:35:39;;;;;;;48.20;32.00;;;9.70;99.90;;;;;;5009779;28;20195;-71
2021/12/13 01:38:11;;;;;;;44.17;29.83;;;9.70;99.90;;;;;;5010819;28;20230;-70
2021/12/13 01:40:40;;;;;;;46.33;30.33;;;9.60;99.90;;;;;;5011156;28;20207;-71
2021/12/13 01:43:12;;;;;;;44.97;30.17;;;9.70;99.90;;;;;;5011887;28;20199;-71
2021/12/13 01:45:42;;;;;;;47.07;30.73;;;9.70;99.90;;;;;;5023913;28;20212;-71
2021/12/13 01:48:21;;;;;;;46.27;30.83;;;9.70;99.90;;;;;;5011760;28;20219;-73
2021/12/13 01:51:03;;;;;;;50.93;32.73;;;9.70;99.90;;;;;;5004183;28;20219;-72
2021/12/13 01:53:36;;;;;;;49.97;30.77;;;9.70;99.90;;;;;;5012505;28;20661;-71
2021/12/13 01:56:11;;;;;;;45.97;30.67;;;9.60;99.90;;;;;;5027450;28;20557;-71
2021/12/13 01:58:43;;;;;;;48.63;33.40;;;9.60;99.90;;;;;;5030043;28;20226;-71
2021/12/13 02:01:16;;;;;;;47.73;30.30;;;9.60;99.90;;;;;;5005069;28;20203;-71
2021/12/13 02:03:54;;;;;;;46.30;31.10;;;9.60;99.90;;;;;;5001688;28;20572;-71
2021/12/13 02:06:32;;;;;;;47.53;32.57;;;9.60;99.90;;;;;;5023397;28;20204;-71
2021/12/13 02:09:22;;;;;;;50.87;32.90;;;9.60;99.90;;;;;;5003967;28;20230;-71
2021/12/13 02:11:55;;;;;;;47.40;30.87;;;9.60;99.90;;;;;;5010180;28;20192;-71
2021/12/13 02:14:27;;;;;;;44.97;30.83;;;9.60;99.90;;;;;;5010314;28;20705;-71
2021/12/13 02:16:59;;;;;;;50.03;32.30;;;9.60;99.90;;;;;;5021320;28;20206;-71
2021/12/13 02:19:39;;;;;;;52.37;32.47;;;9.60;99.90;;;;;;5010271;28;20204;-71
2021/12/13 02:22:25;;;;;;;50.90;33.07;;;9.60;99.90;;;;;;5010162;28;20211;-71
2021/12/13 02:24:57;;;;;;;48.37;32.37;;;9.60;99.90;;;;;;5007177;28;20196;-71
2021/12/13 02:27:29;;;;;;;48.67;32.03;;;9.50;99.90;;;;;;5010918;28;20226;-71
2021/12/13 02:30:00;;;;;;;50.30;32.43;;;9.50;99.90;;;;;;5003259;28;20219;-70
2021/12/13 02:32:35;;;;;;;50.53;30.33;;;9.50;99.90;;;;;;5009915;28;20195;-72
2021/12/13 02:35:05;;;;;;;47.43;31.73;;;9.50;99.90;;;;;;5010403;28;20282;-71
2021/12/13 02:37:34;;;;;;;46.60;29.57;;;9.50;99.90;;;;;;5010619;28;20219;-71
2021/12/13 02:40:04;;;;;;;43.87;28.93;;;9.50;99.90;;;;;;5027816;28;20199;-71
2021/12/13 02:42:52;;;;;;;40.47;27.20;;;9.50;99.90;;;;;;5023289;28;20200;-72
2021/12/13 02:45:25;;;;;;;38.50;25.77;;;9.50;99.90;;;;;;5018715;28;20190;-71
2021/12/13 02:48:05;;;;;;;42.10;27.27;;;9.50;99.90;;;;;;5011358;28;20223;-71
2021/12/13 02:50:42;;;;;;;39.80;25.17;;;9.50;99.90;;;;;;5010382;28;20678;-71
2021/12/13 02:53:10;;;;;;;35.33;25.17;;;9.50;99.90;;;;;;5029979;28;20199;-71
2021/12/13 02:55:40;;;;;;;36.27;24.67;;;9.50;99.90;;;;;;5013927;28;20673;-71
2021/12/13 02:58:12;;;;;;;36.37;25.23;;;9.50;99.90;;;;;;5001815;28;20585;-71
2021/12/13 03:00:44;;;;;;;32.73;23.67;;;9.50;99.90;;;;;;5028346;28;20208;-71
2021/12/13 03:03:16;;;;;;;33.30;23.00;;;9.50;99.90;;;;;;5029907;28;20202;-71
2021/12/13 03:05:47;;;;;;;31.30;22.50;;;9.50;99.90;;;;;;5011585;28;20207;-71
2021/12/13 03:08:18;;;;;;;29.97;21.17;;;9.50;99.90;;;;;;5023271;28;20224;-71
2021/12/13 03:10:51;;;;;;;30.70;20.73;;;9.50;99.90;;;;;;5014773;28;20216;-71
2021/12/13 03:13:20;;;;;;;32.43;21.40;;;9.50;99.90;;;;;;5004069;28;20186;-71
2021/12/13 03:15:52;;;;;;;25.30;20.03;;;9.50;99.90;;;;;;5013350;28;20202;-71
2021/12/13 03:18:25;;;;;;;27.80;21.00;;;9.50;99.90;;;;;;5028125;28;20220;-71
2021/12/13 03:21:14;;;;;;;24.60;18.73;;;9.50;99.90;;;;;;5021694;28;20192;-73
2021/12/13 03:23:52;;;;;;;27.57;19.13;;;9.50;99.90;;;;;;5028891;28;20565;-71
2021/12/13 03:26:55;;;;;;;25.80;19.90;;;9.50;99.90;;;;;;5029637;28;20589;-71
2021/12/13 03:29:34;;;;;;;27.20;18.63;;;9.50;99.90;;;;;;5010094;28;20206;-71
2021/12/13 03:32:01;;;;;;;25.10;18.67;;;9.40;99.90;;;;;;5012407;28;20224;-71
2021/12/13 03:34:31;;;;;;;26.37;18.90;;;9.40;99.90;;;;;;5024459;28;20211;-70
2021/12/13 03:37:03;;;;;;;26.30;19.80;;;9.40;99.90;;;;;;5026975;28;20215;-71
2021/12/13 03:39:35;;;;;;;25.03;17.53;;;9.40;99.90;;;;;;5013309;28;20203;-71
2021/12/13 03:42:07;;;;;;;23.63;18.13;;;9.50;99.90;;;;;;5014472;28;20245;-71
2021/12/13 03:44:38;;;;;;;21.77;16.80;;;9.50;99.90;;;;;;5004133;28;20204;-71
2021/12/13 03:47:11;;;;;;;24.17;18.23;;;9.40;99.90;;;;;;5012940;28;20200;-71
2021/12/13 03:49:44;;;;;;;23.83;17.23;;;9.40;99.90;;;;;;5012958;28;20546;-71
2021/12/13 03:52:16;;;;;;;22.23;16.17;;;9.40;99.90;;;;;;5011583;28;20238;-71
2021/12/13 03:54:50;;;;;;;21.13;15.67;;;9.40;99.90;;;;;;5029769;28;20199;-71
2021/12/13 03:57:19;;;;;;;21.60;16.03;;;9.40;99.90;;;;;;5028704;28;20219;-71
2021/12/13 03:59:49;;;;;;;20.20;15.17;;;9.40;99.90;;;;;;5013614;28;20207;-71
2021/12/13 04:02:23;;;;;;;18.67;14.43;;;9.50;99.90;;;;;;5012344;28;20191;-71
2021/12/13 04:04:53;;;;;;;18.60;15.13;;;9.50;99.90;;;;;;5009810;28;20200;-71
2021/12/13 04:07:24;;;;;;;17.30;13.83;;;9.40;99.90;;;;;;5008090;28;20223;-71
2021/12/13 04:09:56;;;;;;;18.50;13.60;;;9.40;99.90;;;;;;5008615;28;20203;-71
2021/12/13 04:12:32;;;;;;;15.20;13.60;;;9.40;99.90;;;;;;5027317;28;20572;-71
2021/12/13 04:15:15;;;;;;;15.37;12.20;;;9.40;99.90;;;;;;5029206;28;20199;-71
2021/12/13 04:17:55;;;;;;;16.67;12.73;;;9.40;99.90;;;;;;5028430;28;20219;-71
2021/12/13 04:20:26;;;;;;;16.73;12.70;;;9.40;99.90;;;;;;5029753;28;20204;-71
2021/12/13 04:23:06;;;;;;;15.60;11.57;;;9.40;99.90;;;;;;5028642;28;20211;-71
2021/12/13 04:25:37;;;;;;;15.73;12.43;;;9.40;99.90;;;;;;5028696;28;20196;-71
2021/12/13 04:28:09;;;;;;;15.53;12.07;;;9.40;99.90;;;;;;5028698;28;20223;-71
2021/12/13 04:30:40;;;;;;;15.50;11.53;;;9.40;99.90;;;;;;5008517;28;20204;-71
2021/12/13 04:33:11;;;;;;;18.33;11.83;;;9.50;99.90;;;;;;4999076;28;20541;-71
2021/12/13 04:35:41;;;;;;;15.70;11.50;;;9.40;99.90;;;;;;5012757;28;20199;-72
2021/12/13 04:38:09;;;;;;;14.90;11.40;;;9.40;99.90;;;;;;5013290;28;20216;-71
2021/12/13 04:40:41;;;;;;;13.70;11.30;;;9.40;99.90;;;;;;5028490;28;20214;-71
2021/12/13 04:43:12;;;;;;;14.00;11.53;;;9.40;99.90;;;;;;5011676;28;20211;-71
2021/12/13 04:45:45;;;;;;;14.50;10.33;;;9.40;99.90;;;;;;5026444;28;20658;-71
2021/12/13 04:48:17;;;;;;;14.23;10.47;;;9.40;99.90;;;;;;5027336;28;20227;-71
2021/12/13 04:50:51;;;;;;;14.90;11.10;;;9.40;99.90;;;;;;5010221;28;20708;-71
2021/12/13 04:53:20;;;;;;;14.03;11.13;;;9.40;99.90;;;;;;5026100;28;20218;-71
2021/12/13 04:55:48;;;;;;;13.10;10.73;;;9.40;99.90;;;;;;5011584;28;20206;-71
2021/12/13 04:58:19;;;;;;;15.23;11.50;;;9.40;99.90;;;;;;5012365;28;20224;-71
2021/12/13 05:00:49;;;;;;;15.37;11.43;;;9.40;99.90;;;;;;5007049;28;20210;-71
2021/12/13 05:03:20;;;;;;;18.47;11.17;;;9.40;99.90;;;;;;5027489;28;20218;-71
2021/12/13 05:05:49;;;;;;;13.40;10.70;;;9.40;99.90;;;;;;5012131;28;20206;-71
2021/12/13 05:08:18;;;;;;;14.93;11.77;;;9.40;99.90;;;;;;5005791;28;20239;-71
2021/12/13 05:10:49;;;;;;;16.10;11.57;;;9.40;99.90;;;;;;5011915;28;20204;-71
2021/12/13 05:13:20;;;;;;;15.83;11.70;;;9.50;99.90;;;;;;5008341;28;20199;-71
2021/12/13 05:15:56;;;;;;;14.80;11.73;;;9.50;99.90;;;;;;5025082;28;20196;-71
2021/12/13 05:18:27;;;;;;;17.03;12.37;;;9.50;99.90;;;;;;5012328;28;20222;-72
2021/12/13 05:21:01;;;;;;;15.80;11.90;;;9.50;99.90;;;;;;5011423;28;20192;-71
2021/12/13 05:23:30;;;;;;;17.77;13.47;;;9.50;99.90;;;;;;5009553;28;20214;-71
2021/12/13 05:26:00;;;;;;;16.70;13.17;;;9.50;99.90;;;;;;5018934;28;20701;-71
2021/12/13 05:28:30;;;;;;;16.47;12.37;;;9.40;99.90;;;;;;5010721;28;20223;-71
2021/12/13 05:31:01;;;;;;;18.50;12.77;;;9.50;99.90;;;;;;5026811;28;20192;-71
2021/12/13 05:33:32;;;;;;;16.53;12.30;;;9.50;99.90;;;;;;5007070;28;20192;-70
2021/12/13 05:36:02;;;;;;;16.53;12.07;;;9.50;99.90;;;;;;5024835;28;20229;-72
2021/12/13 05:38:33;;;;;;;17.50;13.20;;;9.50;99.90;;;;;;5008711;28;20215;-72
2021/12/13 05:41:04;;;;;;;15.77;12.83;;;9.50;99.90;;;;;;5025617;28;20199;-71
2021/12/13 05:43:35;;;;;;;16.60;12.70;;;9.50;99.90;;;;;;5011956;28;20192;-71
2021/12/13 05:46:05;;;;;;;16.43;12.83;;;9.40;99.90;;;;;;5008255;28;20203;-71
2021/12/13 05:48:46;;;;;;;16.60;13.03;;;9.50;99.90;;;;;;5008320;28;20219;-71
2021/12/13 05:51:33;;;;;;;13.47;11.03;;;9.40;99.90;;;;;;5027008;28;20210;-70
2021/12/13 05:54:03;;;;;;;13.13;10.63;;;9.30;99.90;;;;;;5004904;28;20194;-72
2021/12/13 05:56:37;;;;;;;13.50;10.07;;;9.30;99.90;;;;;;5005515;28;20219;-69
2021/12/13 05:59:17;;;;;;;12.37;10.63;;;9.30;99.90;;;;;;5025597;28;20702;-70
2021/12/13 06:02:24;;;;;;;15.50;11.40;;;9.40;99.90;;;;;;5026070;28;20645;-70
2021/12/13 06:05:00;;;;;;;16.37;11.40;;;9.40;99.90;;;;;;5021373;28;20565;-70
2021/12/13 06:07:31;;;;;;;14.17;11.33;;;9.40;99.90;;;;;;5020710;28;20235;-70
2021/12/13 06:10:01;;;;;;;11.87;9.00;;;9.40;99.90;;;;;;5007680;28;20213;-70
2021/12/13 06:12:38;;;;;;;14.60;10.70;;;9.70;99.90;;;;;;5009052;28;20230;-69
2021/12/13 06:15:24;;;;;;;10.40;8.93;;;9.60;99.90;;;;;;5027903;28;20653;-71
2021/12/13 06:17:57;;;;;;;14.93;10.47;;;10.10;99.90;;;;;;5007722;28;20572;-69
2021/12/13 06:20:27;;;;;;;11.13;9.07;;;9.70;99.90;;;;;;5011102;28;20195;-70
2021/12/13 06:23:05;;;;;;;12.00;10.37;;;9.60;99.90;;;;;;5023270;28;20208;-70
2021/12/13 06:25:33;;;;;;;11.70;8.90;;;9.60;99.90;;;;;;5013300;28;20199;-70
2021/12/13 06:28:01;;;;;;;12.83;9.10;;;9.60;99.90;;;;;;5019555;28;20224;-70
2021/12/13 06:30:57;;;;;;;14.63;10.80;;;9.60;99.90;;;;;;5006575;28;20191;-70
2021/12/13 06:33:25;;;;;;;12.60;9.53;;;9.60;99.90;;;;;;4996148;28;20741;-70
2021/12/13 06:35:54;;;;;;;12.13;9.47;;;9.70;99.90;;;;;;5030695;28;20199;-70
2021/12/13 06:38:38;;;;;;;10.30;8.90;;;9.60;99.90;;;;;;5008205;28;20219;-69
2021/12/13 06:41:16;;;;;;;10.60;9.37;;;9.60;99.90;;;;;;5011144;28;20199;-70
2021/12/13 06:43:47;;;;;;;11.60;8.67;;;9.60;99.90;;;;;;5004400;28;20188;-70
2021/12/13 06:46:33;;;;;;;13.27;9.60;;;9.60;99.90;;;;;;5028870;28;20207;-70
2021/12/13 06:49:25;;;;;;;10.90;8.93;;;9.60;99.90;;;;;;5013523;28;20224;-70
2021/12/13 06:52:05;;;;;;;10.47;8.83;;;9.60;99.90;;;;;;5014124;28;20535;-70
2021/12/13 06:54:37;;;;;;;11.73;9.03;;;9.60;99.90;;;;;;5028486;28;20200;-71
2021/12/13 06:57:08;;;;;;;12.20;9.40;;;9.50;99.90;;;;;;5021718;28;20203;-73
2021/12/13 07:03:06;;;;;;;11.17;8.80;;;9.60;99.90;;;;;;5007571;28;20199;-70
2021/12/13 07:05:50;;;;;;;13.50;10.10;;;9.50;99.90;;;;;;5026752;28;20210;-70
2021/12/13 07:08:39;;;;;;;11.03;9.17;;;9.50;99.90;;;;;;5006195;28;20223;-70
2021/12/13 07:11:12;;;;;;;12.63;10.30;;;9.50;99.90;;;;;;5006455;28;20199;-70
2021/12/13 07:13:42;;;;;;;12.73;9.30;;;9.50;99.90;;;;;;5008829;28;20584;-70
2021/12/13 07:16:14;;;;;;;12.10;9.17;;;9.50;99.90;;;;;;5012453;28;20203;-70
2021/12/13 07:18:53;;;;;;;12.03;8.90;;;9.50;99.90;;;;;;5009506;28;20208;-71
2021/12/13 07:21:23;;;;;;;10.43;8.83;;;9.60;99.90;;;;;;5007023;28;20219;-70
2021/12/13 07:23:53;;;;;;;10.87;9.53;;;9.50;99.90;;;;;;5005663;28;20207;-70
2021/12/13 07:26:34;;;;;;;11.67;9.47;;;9.60;99.90;;;;;;5026276;28;20590;-70
2021/12/13 07:29:05;;;;;;;13.67;10.30;;;9.50;99.90;;;;;;5018535;28;20227;-70
2021/12/13 07:31:32;;;;;;;10.80;9.47;;;9.60;99.90;;;;;;5024493;28;20203;-71
2021/12/13 07:34:11;;;;;;;10.30;8.90;;;9.60;99.90;;;;;;5011184;28;20222;-73
2021/12/13 07:36:40;;;;;;;11.70;8.90;;;9.60;99.90;;;;;;5009133;28;20204;-73
2021/12/13 07:39:15;;;;;;;10.87;8.83;;;9.60;99.90;;;;;;5025605;28;20732;-73
2021/12/13 07:41:48;;;;;;;10.60;9.27;;;9.60;99.90;;;;;;5024946;28;20207;-74
2021/12/13 07:44:36;;;;;;;10.93;8.70;;;9.60;99.90;;;;;;5030536;28;20195;-72
2021/12/13 07:47:20;;;;;;;12.30;9.63;;;9.70;99.90;;;;;;5005749;28;20208;-73
2021/12/13 07:49:59;;;;;;;10.37;7.97;;;9.60;99.90;;;;;;5011948;28;20199;-72
2021/12/13 07:52:41;;;;;;;11.70;8.70;;;9.60;99.90;;;;;;5010252;28;20206;-73
2021/12/13 07:55:15;;;;;;;10.97;8.93;;;9.60;99.90;;;;;;5028651;28;20204;-74
2021/12/13 07:57:48;;;;;;;13.60;9.43;;;9.70;99.90;;;;;;5009327;28;20219;-74
2021/12/13 08:00:19;;;;;;;10.80;8.93;;;9.60;99.90;;;;;;5012681;28;20191;-73
2021/12/13 08:02:55;;;;;;;11.03;9.40;;;9.60;99.90;;;;;;5033779;28;20221;-72
2021/12/13 08:05:37;;;;;;;10.50;8.77;;;9.60;99.90;;;;;;5011034;28;20211;-72
2021/12/13 08:08:06;;;;;;;14.43;9.63;;;9.60;99.90;;;;;;5011241;28;20675;-74
2021/12/13 08:10:37;;;;;;;14.37;10.97;;;9.60;99.90;;;;;;5028548;28;20200;-73
2021/12/13 08:13:26;;;;;;;14.03;10.23;;;9.60;99.90;;;;;;5023942;28;20215;-73
2021/12/13 08:15:56;;;;;;;12.53;10.13;;;9.60;99.90;;;;;;5011741;28;20206;-73
2021/12/13 08:18:31;;;;;;;16.37;9.93;;;9.70;99.90;;;;;;5010947;28;20242;-72
2021/12/13 08:21:03;;;;;;;12.90;9.03;;;9.70;99.90;;;;;;5013414;28;20557;-73
2021/12/13 08:23:35;;;;;;;10.30;7.87;;;9.70;99.90;;;;;;5011343;28;20550;-73
2021/12/13 08:26:12;;;;;;;10.03;8.57;;;9.70;99.90;;;;;;5016000;28;20226;-74
2021/12/13 08:28:41;;;;;;;9.23;7.73;;;9.60;99.90;;;;;;5009498;28;20227;-73
2021/12/13 08:31:11;;;;;;;12.33;8.40;;;9.70;99.90;;;;;;5005016;28;20204;-72
2021/12/13 08:33:43;;;;;;;13.83;8.30;;;9.70;99.90;;;;;;5024000;28;20682;-72
2021/12/13 08:36:14;;;;;;;10.47;8.80;;;9.70;99.90;;;;;;5024022;28;20210;-72
2021/12/13 08:38:46;;;;;;;9.83;7.97;;;9.70;99.90;;;;;;5026143;28;20220;-73
2021/12/13 08:41:25;;;;;;;13.87;8.50;;;9.70;99.90;;;;;;5026733;28;20198;-72
2021/12/13 08:43:55;;;;;;;9.77;7.97;;;9.60;99.90;;;;;;5022147;28;20180;-72
2021/12/13 08:46:35;;;;;;;10.37;7.50;;;9.60;99.90;;;;;;5029136;28;20202;-72
2021/12/13 08:49:14;;;;;;;10.80;7.80;;;9.60;99.90;;;;;;5013437;28;20241;-72
2021/12/13 08:51:52;;;;;;;13.20;8.43;;;9.60;99.90;;;;;;5013707;28;20526;-72
2021/12/13 08:54:21;;;;;;;10.20;7.63;;;9.60;99.90;;;;;;5013523;28;20200;-72
2021/12/13 08:56:53;;;;;;;8.37;7.40;;;9.60;99.90;;;;;;5012097;28;20203;-72
2021/12/13 08:59:24;;;;;;;9.77;7.27;;;9.60;99.90;;;;;;5013514;28;20184;-72
2021/12/13 09:01:55;;;;;;;8.70;6.70;;;9.60;99.90;;;;;;5012345;28;20218;-72
2021/12/13 09:04:26;;;;;;;8.37;6.97;;;9.60;99.90;;;;;;5012164;28;20204;-72
2021/12/13 09:07:06;;;;;;;8.70;6.47;;;9.60;99.90;;;;;;5028538;28;20206;-72
2021/12/13 09:09:34;;;;;;;12.10;7.40;;;9.60;99.90;;;;;;5013455;28;20195;-72
2021/12/13 09:12:07;;;;;;;9.37;6.87;;;9.60;99.90;;;;;;5028448;28;20206;-72
2021/12/13 09:14:43;;;;;;;9.53;6.63;;;9.60;99.90;;;;;;5028874;28;20215;-72
2021/12/13 09:17:16;;;;;;;9.70;6.73;;;9.60;99.90;;;;;;5013364;28;20186;-72
2021/12/13 09:19:53;;;;;;;7.70;6.40;;;9.70;99.90;;;;;;5013444;28;20649;-72
2021/12/13 09:22:26;;;;;;;10.47;6.53;;;9.60;99.90;;;;;;5011978;28;20211;-72
2021/12/13 09:24:56;;;;;;;8.43;6.20;;;9.60;99.90;;;;;;5007569;28;20192;-72
2021/12/13 09:27:34;;;;;;;8.03;5.90;;;9.60;99.90;;;;;;4991607;28;20235;-72
2021/12/13 09:30:14;;;;;;;9.27;6.13;;;9.60;99.90;;;;;;5009427;28;20769;-72
2021/12/13 09:32:53;;;;;;;8.00;6.10;;;9.60;99.90;;;;;;5015269;28;20210;-72
2021/12/13 09:35:42;;;;;;;7.63;6.10;;;9.70;99.90;;;;;;5012921;28;20658;-72
2021/12/13 09:38:47;;;;;;;7.40;5.33;;;9.70;99.90;;;;;;5005596;28;20223;-73
2021/12/13 09:41:29;;;;;;;11.77;7.20;;;9.70;99.90;;;;;;5008407;28;20191;-72
2021/12/13 09:44:01;;;;;;;7.67;6.53;;;9.70;99.90;;;;;;5012013;28;20198;-72
2021/12/13 09:46:36;;;;;;;8.27;5.60;;;9.70;99.90;;;;;;5027474;28;20559;-72
2021/12/13 09:49:08;;;;;;;8.83;6.10;;;9.70;99.90;;;;;;5010605;28;20226;-72
2021/12/13 09:51:43;;;;;;;7.53;5.77;;;9.80;99.90;;;;;;5013274;28;20514;-72
2021/12/13 09:54:15;;;;;;;7.73;5.77;;;9.70;99.90;;;;;;5011761;28;20222;-72
2021/12/13 09:56:49;;;;;;;8.37;5.80;;;9.80;99.90;;;;;;5027841;28;20218;-72
2021/12/13 09:59:25;;;;;;;6.43;5.37;;;9.70;99.90;;;;;;5013122;28;20227;-72
2021/12/13 10:01:58;;;;;;;7.90;5.97;;;9.70;99.90;;;;;;5009659;28;20210;-72
2021/12/13 10:04:30;;;;;;;5.73;5.10;;;9.80;99.90;;;;;;5030062;28;20203;-72
2021/12/13 10:07:02;;;;;;;7.47;5.13;;;9.70;99.90;;;;;;5013049;28;20549;-72
2021/12/13 10:09:35;;;;;;;6.90;5.17;;;9.70;99.90;;;;;;4998715;28;20188;-73
2021/12/13 10:12:08;;;;;;;7.13;5.53;;;9.70;99.90;;;;;;4991953;28;20208;-72
2021/12/13 10:14:38;;;;;;;8.17;6.03;;;9.70;99.90;;;;;;5008473;28;20216;-72
2021/12/13 10:17:07;;;;;;;8.27;5.77;;;9.70;99.90;;;;;;5007944;28;20203;-72
2021/12/13 10:19:38;;;;;;;8.57;5.80;;;9.70;99.90;;;;;;5010704;28;20192;-72
2021/12/13 10:22:08;;;;;;;6.13;5.17;;;9.70;99.90;;;;;;5010782;28;20210;-72
2021/12/13 10:24:40;;;;;;;8.43;5.63;;;9.70;99.90;;;;;;5012663;28;20180;-72
2021/12/13 10:27:11;;;;;;;7.80;6.00;;;9.80;99.90;;;;;;5011071;28;20207;-72
2021/12/13 10:29:39;;;;;;;6.40;5.33;;;9.70;99.90;;;;;;5011392;28;20203;-72
2021/12/13 10:32:10;;;;;;;7.33;5.30;;;9.70;99.90;;;;;;5010678;28;20523;-73
2021/12/13 10:34:40;;;;;;;6.53;5.03;;;9.70;99.90;;;;;;5010718;28;20222;-72
2021/12/13 10:37:10;;;;;;;8.00;5.87;;;9.70;99.90;;;;;;5007204;28;20203;-72
2021/12/13 10:39:43;;;;;;;7.90;5.87;;;9.70;99.90;;;;;;5008361;28;20562;-72
2021/12/13 10:42:15;;;;;;;5.57;5.03;;;9.70;99.90;;;;;;5011651;28;20192;-72
2021/12/13 10:44:44;;;;;;;8.87;5.80;;;9.70;99.90;;;;;;5006028;28;20200;-72
2021/12/13 10:47:17;;;;;;;7.73;5.33;;;9.70;99.90;;;;;;5025855;28;20204;-72
2021/12/13 10:49:47;;;;;;;8.47;5.77;;;9.70;99.90;;;;;;5009120;28;20192;-72
2021/12/13 10:52:18;;;;;;;7.27;5.73;;;9.70;99.90;;;;;;5009055;28;20211;-72
2021/12/13 10:54:51;;;;;;;8.47;5.53;;;9.70;99.90;;;;;;5011258;28;20208;-73
2021/12/13 10:57:22;;;;;;;9.00;6.30;;;9.80;99.90;;;;;;5005781;28;20222;-73
2021/12/13 10:59:51;;;;;;;6.87;5.60;;;9.80;99.90;;;;;;5026573;23;20220;-76
2021/12/13 11:02:23;;;;;;;8.50;6.13;;;9.80;99.90;;;;;;5033663;28;20648;-76
2021/12/13 11:04:55;;;;;;;6.70;6.10;;;9.80;99.90;;;;;;5022754;28;20557;-76
2021/12/13 11:07:56;;;;;;;10.87;5.93;;;9.80;99.90;;;;;;5025153;28;20195;-76
2021/12/13 11:10:28;;;;;;;8.10;5.73;;;9.70;99.90;;;;;;5023165;28;20592;-76
2021/12/13 11:13:00;;;;;;;7.60;5.33;;;9.70;99.90;;;;;;5026997;28;20675;-76
2021/12/13 11:15:30;;;;;;;9.53;6.10;;;9.80;99.90;;;;;;5033007;28;20661;-76
2021/12/13 11:17:59;;;;;;;9.33;6.27;;;9.80;99.90;;;;;;5049460;28;20194;-76
2021/12/13 11:20:31;;;;;;;6.47;4.97;;;9.80;99.90;;;;;;5043076;28;20231;-76
2021/12/13 11:23:05;;;;;;;8.97;5.67;;;9.80;99.90;;;;;;5028772;28;20195;-76
2021/12/13 11:25:39;;;;;;;8.27;5.67;;;9.80;99.90;;;;;;5048907;28;20211;-76
2021/12/13 11:28:08;;;;;;;8.83;5.63;;;9.80;99.90;;;;;;5044664;28;20207;-76
2021/12/13 11:30:43;;;;;;;7.20;5.37;;;9.80;99.90;;;;;;5029749;28;20223;-76
2021/12/13 11:33:47;;;;;;;6.97;5.47;;;9.80;99.90;;;;;;5046261;28;20207;-76
2021/12/13 11:36:49;;;;;;;8.63;6.20;;;9.70;99.90;;;;;;5048996;28;20209;-76
2021/12/13 11:39:49;;;;;;;7.60;5.47;;;9.80;99.90;;;;;;5022228;28;20557;-76
2021/12/13 11:43:03;;;;;;;13.77;6.30;;;9.70;99.90;;;;;;5028952;28;20210;-76
2021/12/13 11:46:18;;;;;;;5.97;5.20;;;9.70;99.90;;;;;;5045320;28;20206;-76
2021/12/13 11:49:08;;;;;;;8.77;5.13;;;9.80;99.90;;;;;;5030888;28;20199;-75
2021/12/13 11:52:13;;;;;;;5.57;3.97;;;9.80;99.90;;;;;;5026558;28;20587;-75
2021/12/13 11:54:55;;;;;;;4.70;3.83;;;10.20;99.90;;;;;;5032602;28;20552;-76
2021/12/13 11:58:17;;;;;;;5.73;4.73;;;10.40;99.90;;;;;;5032280;28;20198;-75
2021/12/13 12:01:12;;;;;;;6.63;5.03;;;10.10;99.90;;;;;;5038983;28;20219;-76
2021/12/13 12:04:17;;;;;;;6.57;4.77;;;10.00;99.90;;;;;;5015646;28;20653;-76
2021/12/13 12:07:18;;;;;;;6.10;5.00;;;9.90;99.90;;;;;;5027404;28;20199;-76
2021/12/13 12:10:22;;;;;;;5.73;4.43;;;9.90;99.90;;;;;;5030506;28;20218;-76
2021/12/13 12:13:27;;;;;;;5.23;4.33;;;10.00;99.90;;;;;;5022786;28;20656;-77
2021/12/13 12:16:02;;;;;;;4.70;3.93;;;10.00;99.90;;;;;;5031093;28;20198;-77
2021/12/13 12:18:39;;;;;;;5.07;4.57;;;9.90;99.90;;;;;;5031241;28;20663;-76
2021/12/13 12:21:45;;;;;;;6.13;5.20;;;9.90;99.90;;;;;;5026573;28;20603;-76
2021/12/13 12:24:16;;;;;;;6.07;5.50;;;9.90;99.90;;;;;;5021506;28;20203;-76
2021/12/13 12:26:52;;;;;;;9.93;5.80;;;9.90;99.90;;;;;;5028324;28;20606;-76
2021/12/13 12:29:23;;;;;;;5.30;4.40;;;9.90;99.90;;;;;;5029245;28;20201;-76
2021/12/13 12:31:59;;;;;;;7.70;5.30;;;9.90;99.90;;;;;;5029573;28;20199;-76
2021/12/13 12:34:27;;;;;;;7.17;4.37;;;9.90;99.90;;;;;;5040096;28;20676;-77
2021/12/13 12:40:49;;;;;;;4.80;4.30;;;10.00;99.90;;;;;;5037313;28;20206;-76
2021/12/13 12:43:21;;;;;;;6.43;4.53;;;10.00;99.90;;;;;;5031530;28;20202;-76
2021/12/13 12:45:51;;;;;;;8.20;5.27;;;10.10;99.90;;;;;;5043474;28;20223;-76
2021/12/13 12:48:33;;;;;;;5.40;4.77;;;10.10;99.90;;;;;;5029404;28;20556;-77
2021/12/13 12:51:07;;;;;;;5.70;5.20;;;10.10;99.90;;;;;;5026120;28;20222;-76
2021/12/13 12:53:47;;;;;;;5.47;4.67;;;10.20;99.90;;;;;;5047798;28;20203;-76
2021/12/13 12:56:23;;;;;;;6.20;5.17;;;10.20;99.90;;;;;;5042674;28;20196;-77
2021/12/13 12:58:58;;;;;;;7.17;5.07;;;10.20;99.90;;;;;;5024728;28;20191;-76
2021/12/13 13:01:29;;;;;;;5.83;4.80;;;10.20;99.90;;;;;;5047751;28;20222;-77
2021/12/13 13:04:10;;;;;;;5.63;4.50;;;10.20;99.90;;;;;;5046687;28;20202;-76
2021/12/13 13:06:50;;;;;;;5.77;4.63;;;10.20;99.90;;;;;;5026514;28;20212;-77
2021/12/13 13:09:40;;;;;;;7.00;4.87;;;10.20;99.90;;;;;;5028227;28;20202;-77
2021/12/13 13:12:12;;;;;;;5.80;4.20;;;10.10;99.90;;;;;;5047130;28;20202;-76
2021/12/13 13:14:45;;;;;;;5.77;4.70;;;10.10;99.90;;;;;;5031477;28;20203;-76
2021/12/13 13:17:13;;;;;;;7.30;5.23;;;10.10;99.90;;;;;;5031881;28;20210;-76
2021/12/13 13:19:56;;;;;;;5.97;4.47;;;10.10;99.90;;;;;;5049769;28;20226;-76
2021/12/13 13:22:27;;;;;;;5.00;4.47;;;10.10;99.90;;;;;;5046460;28;20214;-76
2021/12/13 13:24:58;;;;;;;6.57;4.80;;;10.10;99.90;;;;;;5044222;28;20575;-76
2021/12/13 13:27:31;;;;;;;4.63;4.07;;;10.10;99.90;;;;;;5040946;28;20211;-76
2021/12/13 13:30:00;;;;;;;5.80;4.00;;;10.10;99.90;;;;;;5017615;28;20281;-76
2021/12/13 13:32:28;;;;;;;4.60;4.10;;;10.10;99.90;;;;;;5019460;28;20183;-76
2021/12/13 13:34:59;;;;;;;4.90;4.40;;;10.10;99.90;;;;;;5023500;28;20195;-77